Esplanada, Brazil
Current Conditions -  °F | °C
As of 2:00 AM on Sunday 26 Oct 2014 (Local Time) from SBSV Reporting Station
Few Clouds Few Clouds  
Wind Chill: 77°   Ceiling: Unl
Heat Index: 79°   Visibility: 6mi
Dew Point: 68°   Wind: 14mph
Humidity: 74%   Direction: 70°ENE
Pressure: 29.91"   Gusts: NA
Location:  11.8°S, 37.94°W
Report Text: SBSV 260500Z 07012KT 9999 FEW017 25/20 Q1013
Loading
Personal Weather Stations






























Interactive Weather Map
Tropical Storm Tracking
New forecast layout! Learn more

10-Day Weather Forecast

Advertisements
Track Severe Weather on mobile